createdAt,value
2023-01-08T00:02:05.664Z,16.92
2023-01-08T00:05:08.625Z,16.13
2023-01-08T00:08:11.600Z,15.98
2023-01-08T00:11:14.833Z,15.70
2023-01-08T00:14:16.969Z,15.10
2023-01-08T00:17:19.306Z,14.73
2023-01-08T00:20:22.239Z,16.30
2023-01-08T00:23:24.863Z,14.95
2023-01-08T00:26:27.804Z,16.65
2023-01-08T00:29:31.098Z,14.63
2023-01-08T00:32:36.062Z,14.10
2023-01-08T00:35:41.398Z,13.27
2023-01-08T00:38:46.933Z,15.13
2023-01-08T00:41:50.181Z,13.98
2023-01-08T00:44:54.139Z,15.60
2023-01-08T00:47:58.954Z,13.25
2023-01-08T00:51:03.876Z,11.20
2023-01-08T00:54:06.657Z,12.00
2023-01-08T00:57:08.650Z,9.68
2023-01-08T01:00:14.697Z,11.27
2023-01-08T01:03:18.305Z,9.80
2023-01-08T01:06:23.163Z,11.50
2023-01-08T01:09:25.381Z,8.63
2023-01-08T01:12:28.270Z,8.15
2023-01-08T01:15:30.761Z,9.48
2023-01-08T01:18:32.856Z,9.55
2023-01-08T01:21:48.084Z,9.18
2023-01-08T01:24:51.026Z,9.23
2023-01-08T01:27:56.869Z,8.88
2023-01-08T01:30:59.518Z,9.00
2023-01-08T01:34:02.153Z,8.80
2023-01-08T01:37:05.339Z,7.47
2023-01-08T01:40:09.788Z,8.48
2023-01-08T01:43:15.131Z,8.68
2023-01-08T01:46:39.993Z,9.18
2023-01-08T01:49:54.005Z,7.93
2023-01-08T01:53:08.892Z,7.63
2023-01-08T01:56:12.048Z,7.03
2023-01-08T01:59:15.135Z,8.75
2023-01-08T02:02:17.404Z,7.93
2023-01-08T02:05:21.263Z,8.10
2023-01-08T02:08:35.463Z,7.88
2023-01-08T02:12:24.173Z,7.60
2023-01-08T02:15:49.397Z,8.00
2023-01-08T02:18:59.371Z,8.38
2023-01-08T02:22:45.886Z,6.70
2023-01-08T02:26:15.166Z,7.45
2023-01-08T02:29:23.788Z,6.75
2023-01-08T02:32:28.066Z,6.22
2023-01-08T02:35:49.110Z,7.30
2023-01-08T02:39:12.253Z,6.57
2023-01-08T02:42:36.138Z,7.05
2023-01-08T02:45:55.815Z,6.60
2023-01-08T02:49:10.515Z,6.78
2023-01-08T02:52:16.112Z,6.30
2023-01-08T02:55:21.184Z,6.55
2023-01-08T02:58:25.610Z,6.70
2023-01-08T03:01:30.239Z,6.13
2023-01-08T03:04:40.444Z,6.53
2023-01-08T03:07:43.776Z,6.40
2023-01-08T03:10:52.249Z,6.43
2023-01-08T03:14:02.868Z,8.25
2023-01-08T03:17:20.395Z,7.28
2023-01-08T03:20:26.387Z,7.65
2023-01-08T03:23:31.850Z,6.43
2023-01-08T03:26:37.485Z,6.93
2023-01-08T03:29:40.649Z,7.25
2023-01-08T03:32:45.386Z,7.60
2023-01-08T03:35:50.802Z,8.80
2023-01-08T03:39:12.649Z,7.13
2023-01-08T03:42:18.211Z,7.85
2023-01-08T03:45:22.307Z,8.75
2023-01-08T03:48:27.572Z,6.95
2023-01-08T03:51:30.224Z,7.70
2023-01-08T03:54:34.949Z,6.93
2023-01-08T03:57:37.099Z,7.65
2023-01-08T04:00:39.439Z,8.60
2023-01-08T04:03:41.492Z,7.15
2023-01-08T04:06:43.710Z,6.75
2023-01-08T04:09:46.046Z,6.90
2023-01-08T04:12:48.127Z,7.60
2023-01-08T04:15:51.847Z,7.85
2023-01-08T04:18:54.249Z,8.43
2023-01-08T04:21:56.259Z,7.18
2023-01-08T04:24:58.426Z,5.78
2023-01-08T04:28:00.504Z,7.93
2023-01-08T04:31:10.013Z,7.53
2023-01-08T04:34:12.280Z,7.07
2023-01-08T04:37:14.328Z,7.55
2023-01-08T04:40:16.543Z,7.78
2023-01-08T04:43:18.525Z,6.88
2023-01-08T04:46:20.675Z,7.07
2023-01-08T04:49:22.893Z,7.00
2023-01-08T04:52:25.531Z,7.03
2023-01-08T04:55:27.770Z,6.88
2023-01-08T04:58:29.988Z,6.30
2023-01-08T05:01:32.494Z,5.35
2023-01-08T05:04:35.032Z,5.93
2023-01-08T05:07:38.198Z,6.25
2023-01-08T05:10:40.656Z,5.82
2023-01-08T05:13:42.830Z,6.32
2023-01-08T05:16:44.920Z,5.82
2023-01-08T05:19:47.118Z,6.55
2023-01-08T05:22:49.149Z,6.65
2023-01-08T05:25:51.226Z,6.63
2023-01-08T05:28:53.371Z,6.25
2023-01-08T05:31:56.944Z,6.53
2023-01-08T05:34:59.393Z,4.95
2023-01-08T05:38:03.189Z,5.00
2023-01-08T05:41:06.280Z,5.22
2023-01-08T05:44:10.294Z,5.50
2023-01-08T05:47:13.690Z,6.18
2023-01-08T05:50:15.913Z,5.90
2023-01-08T05:53:17.945Z,6.38
2023-01-08T05:56:22.563Z,4.40
2023-01-08T05:59:24.851Z,5.40
2023-01-08T06:02:27.639Z,5.63
2023-01-08T06:05:31.319Z,5.13
2023-01-08T06:08:34.069Z,5.47
2023-01-08T06:11:36.103Z,5.78
2023-01-08T06:14:39.196Z,6.05
2023-01-08T06:17:42.170Z,5.55
2023-01-08T06:20:44.315Z,5.88
2023-01-08T06:23:46.285Z,5.50
2023-01-08T06:26:48.222Z,5.78
2023-01-08T06:29:50.276Z,4.78
2023-01-08T06:32:57.116Z,5.72
2023-01-08T06:36:05.144Z,5.70
2023-01-08T06:39:08.353Z,5.55
2023-01-08T06:42:10.580Z,5.07
2023-01-08T06:45:13.035Z,6.40
2023-01-08T06:48:15.113Z,5.65
2023-01-08T06:51:17.248Z,6.85
2023-01-08T06:54:19.725Z,5.97
2023-01-08T06:57:22.159Z,5.20
2023-01-08T07:00:26.330Z,5.15
2023-01-08T07:03:29.911Z,4.80
2023-01-08T07:06:33.558Z,5.70
2023-01-08T07:09:35.960Z,4.95
2023-01-08T07:12:37.995Z,5.45
2023-01-08T07:15:41.501Z,7.43
2023-01-08T07:18:44.986Z,5.93
2023-01-08T07:21:47.335Z,5.75
2023-01-08T07:24:49.588Z,6.10
2023-01-08T07:27:52.051Z,6.50
2023-01-08T07:30:54.299Z,6.88
2023-01-08T07:33:56.557Z,6.05
2023-01-08T07:36:58.591Z,5.68
2023-01-08T07:40:00.710Z,5.35
2023-01-08T07:43:04.919Z,5.25
2023-01-08T07:46:08.169Z,4.43
2023-01-08T07:49:10.681Z,5.82
2023-01-08T07:52:12.728Z,4.95
2023-01-08T07:55:14.961Z,5.20
2023-01-08T07:58:17.382Z,5.57
2023-01-08T08:01:19.591Z,5.03
2023-01-08T08:04:21.692Z,5.07
2023-01-08T08:07:23.762Z,5.20
2023-01-08T08:10:25.862Z,5.55
2023-01-08T08:13:28.155Z,3.20
2023-01-08T08:16:30.197Z,4.95
2023-01-08T08:19:32.301Z,6.15
2023-01-08T08:22:34.316Z,5.88
2023-01-08T08:25:37.080Z,4.97
2023-01-08T08:28:42.272Z,5.55
2023-01-08T08:31:44.574Z,6.10
2023-01-08T08:34:46.532Z,5.60
2023-01-08T08:37:48.831Z,5.68
2023-01-08T08:40:51.264Z,5.88
2023-01-08T08:43:53.674Z,6.30
2023-01-08T08:46:55.699Z,5.88
2023-01-08T08:49:57.913Z,5.05
2023-01-08T08:53:00.887Z,5.30
2023-01-08T08:56:03.126Z,6.50
2023-01-08T08:59:05.161Z,6.68
2023-01-08T09:02:07.677Z,5.25
2023-01-08T09:05:10.920Z,5.43
2023-01-08T09:08:13.269Z,5.93
2023-01-08T09:11:16.525Z,5.53
2023-01-08T09:14:18.804Z,6.38
2023-01-08T09:17:22.366Z,5.90
2023-01-08T09:20:29.820Z,6.60
2023-01-08T09:23:32.771Z,6.28
2023-01-08T09:26:34.901Z,5.63
2023-01-08T09:29:36.930Z,5.93
2023-01-08T09:32:39.132Z,5.90
2023-01-08T09:35:44.830Z,6.15
2023-01-08T09:38:46.818Z,6.43
2023-01-08T09:41:50.037Z,5.85
2023-01-08T09:44:55.633Z,6.55
2023-01-08T09:48:01.306Z,6.30
2023-01-08T09:51:06.542Z,6.63
2023-01-08T09:54:15.744Z,7.43
2023-01-08T09:57:20.503Z,7.00
2023-01-08T10:00:29.869Z,6.75
2023-01-08T10:03:43.694Z,6.85
2023-01-08T10:07:02.394Z,7.20
2023-01-08T10:10:07.047Z,7.47
2023-01-08T10:13:14.644Z,6.75
2023-01-08T10:16:33.560Z,6.47
2023-01-08T10:19:38.932Z,6.47
2023-01-08T10:22:41.408Z,6.45
2023-01-08T10:25:55.342Z,7.10
2023-01-08T10:29:17.499Z,8.38
2023-01-08T10:32:39.820Z,7.28
2023-01-08T10:35:43.462Z,6.45
2023-01-08T10:38:56.438Z,7.30
2023-01-08T10:42:05.884Z,7.90
2023-01-08T10:45:19.109Z,6.43
2023-01-08T10:48:21.424Z,8.13
2023-01-08T10:51:25.981Z,7.50
2023-01-08T10:54:41.112Z,9.45
2023-01-08T10:57:53.187Z,8.40
2023-01-08T11:00:57.736Z,8.98
2023-01-08T11:04:02.181Z,8.65
2023-01-08T11:07:06.856Z,6.97
2023-01-08T11:10:30.369Z,8.02
2023-01-08T11:13:32.663Z,7.95
2023-01-08T11:16:39.793Z,7.57
2023-01-08T11:19:41.956Z,8.25
2023-01-08T11:22:44.062Z,7.70
2023-01-08T11:26:31.985Z,9.80
2023-01-08T11:30:05.081Z,8.63
2023-01-08T11:33:34.204Z,9.27
2023-01-08T11:42:04.551Z,6.97
2023-01-08T11:45:38.844Z,8.25
2023-01-08T11:49:02.043Z,8.07
2023-01-08T11:52:56.490Z,7.15
2023-01-08T11:56:37.593Z,6.72
2023-01-08T11:59:55.576Z,7.47
2023-01-08T12:03:11.544Z,7.25
2023-01-08T12:06:45.259Z,7.78
2023-01-08T12:09:58.150Z,7.43
2023-01-08T12:13:22.996Z,7.43
2023-01-08T12:17:03.050Z,7.38
2023-01-08T12:20:36.405Z,6.60
2023-01-08T12:23:44.241Z,7.97
2023-01-08T12:27:07.644Z,8.45
2023-01-08T12:30:18.909Z,7.53
2023-01-08T12:33:35.013Z,6.50
2023-01-08T12:36:41.824Z,7.65
2023-01-08T12:39:53.463Z,7.05
2023-01-08T12:43:01.605Z,6.40
2023-01-08T12:46:06.232Z,6.20
2023-01-08T12:49:11.563Z,6.30
2023-01-08T12:52:24.169Z,7.78
2023-01-08T12:55:42.767Z,6.88
2023-01-08T13:02:14.423Z,7.05
2023-01-08T13:05:19.384Z,6.30
2023-01-08T13:08:52.938Z,5.93
2023-01-08T13:12:03.223Z,5.75
2023-01-08T13:15:07.004Z,5.60
2023-01-08T13:18:21.219Z,6.22
2023-01-08T13:21:31.318Z,5.57
2023-01-08T13:24:41.258Z,6.72
2023-01-08T13:27:44.962Z,6.05
2023-01-08T13:30:50.362Z,6.45
2023-01-08T13:33:52.915Z,6.07
2023-01-08T13:36:57.509Z,5.97
2023-01-08T13:39:59.659Z,6.68
2023-01-08T13:43:06.454Z,6.85
2023-01-08T13:46:23.022Z,6.05
2023-01-08T13:49:57.192Z,6.60
2023-01-08T13:53:04.096Z,6.25
2023-01-08T13:56:09.177Z,5.43
2023-01-08T13:59:42.953Z,6.40
2023-01-08T14:02:50.596Z,6.50
2023-01-08T14:06:06.604Z,5.75
2023-01-08T14:09:35.272Z,7.00
2023-01-08T14:12:37.486Z,4.53
2023-01-08T14:15:39.856Z,5.70
2023-01-08T14:18:44.173Z,5.68
2023-01-08T14:21:57.390Z,5.72
2023-01-08T14:25:04.087Z,7.03
2023-01-08T14:28:12.184Z,7.63
2023-01-08T14:31:31.505Z,5.95
2023-01-08T14:34:39.883Z,5.20
2023-01-08T14:37:42.439Z,7.78
2023-01-08T14:41:04.983Z,6.18
2023-01-08T14:44:14.205Z,5.50
2023-01-08T14:47:22.140Z,6.43
2023-01-08T14:50:24.369Z,5.50
2023-01-08T14:53:34.089Z,5.35
2023-01-08T14:56:37.656Z,5.82
2023-01-08T14:59:40.015Z,6.20
2023-01-08T15:02:49.373Z,5.82
2023-01-08T15:05:54.615Z,5.43
2023-01-08T15:08:58.529Z,6.82
2023-01-08T15:12:04.087Z,5.57
2023-01-08T15:15:22.442Z,5.18
2023-01-08T15:18:25.516Z,5.93
2023-01-08T15:21:27.684Z,5.60
2023-01-08T15:24:37.130Z,5.85
2023-01-08T15:27:40.152Z,4.90
2023-01-08T15:30:47.565Z,4.85
2023-01-08T15:34:00.152Z,6.05
2023-01-08T15:37:02.743Z,5.63
2023-01-08T15:40:05.734Z,5.18
2023-01-08T15:43:12.759Z,5.53
2023-01-08T15:46:25.321Z,5.45
2023-01-08T15:49:41.067Z,4.57
2023-01-08T15:52:43.868Z,4.75
2023-01-08T15:55:48.339Z,6.00
2023-01-08T15:58:50.414Z,5.18
2023-01-08T16:01:53.274Z,5.57
2023-01-08T16:04:57.196Z,6.18
2023-01-08T16:07:59.844Z,5.93
2023-01-08T16:11:02.002Z,6.40
2023-01-08T16:14:04.987Z,4.68
2023-01-08T16:17:11.091Z,4.63
2023-01-08T16:20:15.775Z,5.55
2023-01-08T16:23:21.751Z,5.70
2023-01-08T16:26:25.093Z,5.35
2023-01-08T16:29:30.091Z,6.18
2023-01-08T16:32:32.785Z,5.93
2023-01-08T16:36:57.912Z,6.82
2023-01-08T16:40:02.429Z,3.03
2023-01-08T16:43:08.036Z,4.97
2023-01-08T16:46:16.670Z,4.18
2023-01-08T16:50:17.365Z,5.07
2023-01-08T16:53:21.249Z,6.65
2023-01-08T16:56:24.537Z,5.70
2023-01-08T16:59:27.682Z,5.05
2023-01-08T17:02:42.344Z,5.18
2023-01-08T17:05:47.295Z,6.38
2023-01-08T17:08:51.949Z,5.97
2023-01-08T17:11:57.320Z,6.32
2023-01-08T17:15:03.699Z,6.25
2023-01-08T17:18:06.360Z,5.65
2023-01-08T17:21:09.964Z,7.38
2023-01-08T17:24:12.202Z,6.22
2023-01-08T17:27:14.241Z,5.72
2023-01-08T17:30:16.532Z,5.75
2023-01-08T17:33:18.853Z,5.85
2023-01-08T17:36:37.668Z,6.45
2023-01-08T17:39:49.258Z,7.32
2023-01-08T17:42:51.335Z,6.30
2023-01-08T17:45:56.515Z,5.45
2023-01-08T17:49:00.541Z,5.60
2023-01-08T17:52:02.778Z,5.15
2023-01-08T17:55:05.299Z,5.97
2023-01-08T17:58:09.727Z,5.85
2023-01-08T18:01:14.630Z,5.63
2023-01-08T18:04:17.438Z,5.72
2023-01-08T18:07:19.570Z,5.53
2023-01-08T18:10:21.615Z,6.20
2023-01-08T18:13:23.978Z,5.13
2023-01-08T18:16:27.222Z,5.20
2023-01-08T18:19:29.236Z,4.55
2023-01-08T18:22:31.694Z,4.85
2023-01-08T18:25:45.046Z,5.57
2023-01-08T18:28:48.486Z,6.60
2023-01-08T18:31:51.490Z,5.35
2023-01-08T18:34:53.742Z,5.32
2023-01-08T18:37:57.169Z,6.00
2023-01-08T18:41:02.211Z,6.18
2023-01-08T18:44:06.845Z,5.10
2023-01-08T18:47:09.274Z,6.55
2023-01-08T18:50:12.022Z,7.15
2023-01-08T18:53:14.248Z,7.13
2023-01-08T18:56:35.563Z,5.90
2023-01-08T18:59:38.121Z,6.13
2023-01-08T19:02:40.425Z,5.82
2023-01-08T19:05:43.233Z,5.50
2023-01-08T19:08:46.423Z,6.43
2023-01-08T19:11:48.632Z,6.30
2023-01-08T19:14:51.114Z,6.07
2023-01-08T19:17:53.224Z,7.15
2023-01-08T19:20:56.438Z,7.32
2023-01-08T19:24:00.144Z,6.72
2023-01-08T19:27:02.225Z,6.55
2023-01-08T19:30:07.423Z,6.63
2023-01-08T19:33:10.850Z,6.35
2023-01-08T19:36:15.966Z,6.07
2023-01-08T19:39:22.809Z,6.03
2023-01-08T19:42:45.816Z,6.60
2023-01-08T19:45:47.890Z,5.15
2023-01-08T19:48:50.325Z,7.45
2023-01-08T19:51:53.086Z,5.72
2023-01-08T19:54:57.834Z,6.30
2023-01-08T19:58:00.124Z,6.25
2023-01-08T20:01:10.116Z,5.25
2023-01-08T20:04:16.973Z,6.45
2023-01-08T20:07:28.844Z,5.53
2023-01-08T20:10:31.736Z,5.68
2023-01-08T20:13:37.113Z,6.65
2023-01-08T20:16:40.320Z,6.25
2023-01-08T20:19:46.894Z,6.13
2023-01-08T20:22:50.986Z,5.97
2023-01-08T20:25:56.376Z,9.50
2023-01-08T20:28:59.823Z,6.13
2023-01-08T20:32:05.370Z,6.22
2023-01-08T20:35:08.508Z,6.40
2023-01-08T20:38:12.034Z,7.32
2023-01-08T20:41:14.751Z,7.88
2023-01-08T20:44:18.995Z,6.75
2023-01-08T20:47:23.260Z,7.28
2023-01-08T20:50:25.682Z,6.32
2023-01-08T20:53:33.052Z,5.55
2023-01-08T20:56:42.335Z,5.60
2023-01-08T20:59:52.703Z,5.70
2023-01-08T21:03:04.385Z,5.35
2023-01-08T21:06:15.846Z,6.45
2023-01-08T21:09:21.026Z,5.70
2023-01-08T21:12:23.430Z,5.82
2023-01-08T21:15:31.748Z,3.85
2023-01-08T21:18:34.604Z,4.93
2023-01-08T21:21:40.775Z,4.13
2023-01-08T21:24:44.360Z,3.95
2023-01-08T21:27:47.648Z,4.25
2023-01-08T21:30:54.788Z,4.65
2023-01-08T21:33:58.712Z,3.92
2023-01-08T21:37:02.635Z,5.50
2023-01-08T21:40:06.842Z,3.85
2023-01-08T21:43:30.873Z,5.85
2023-01-08T21:46:34.709Z,3.95
2023-01-08T21:49:38.830Z,4.07
2023-01-08T21:53:00.104Z,4.03
2023-01-08T21:56:04.218Z,4.00
2023-01-08T21:59:06.280Z,3.45
2023-01-08T22:02:19.601Z,3.97
2023-01-08T22:05:21.758Z,5.43
2023-01-08T22:08:24.101Z,3.67
2023-01-08T22:11:35.969Z,3.50
2023-01-08T22:14:57.687Z,5.82
2023-01-08T22:18:02.687Z,4.03
2023-01-08T22:21:13.505Z,4.97
2023-01-08T22:24:18.447Z,4.38
2023-01-08T22:27:29.285Z,3.58
2023-01-08T22:30:31.888Z,3.50
2023-01-08T22:33:34.526Z,3.00
2023-01-08T22:36:37.069Z,2.85
2023-01-08T22:39:40.172Z,4.32
2023-01-08T22:42:45.950Z,4.40
2023-01-08T22:46:00.598Z,4.13
2023-01-08T22:49:52.727Z,3.47
2023-01-08T22:52:54.857Z,3.72
2023-01-08T22:56:02.045Z,3.83
2023-01-08T23:02:44.866Z,3.25
2023-01-08T23:05:47.301Z,2.60
2023-01-08T23:09:08.325Z,2.78
2023-01-08T23:17:19.595Z,2.15
2023-01-08T23:21:12.123Z,3.17
2023-01-08T23:24:43.583Z,4.25
2023-01-08T23:27:48.275Z,3.28
2023-01-08T23:30:50.564Z,3.10
2023-01-08T23:33:54.776Z,3.25
2023-01-08T23:36:58.803Z,2.80
2023-01-08T23:40:01.141Z,3.25
2023-01-08T23:43:05.873Z,2.67
2023-01-08T23:46:09.498Z,2.45
2023-01-08T23:49:12.103Z,2.45
2023-01-08T23:52:15.444Z,2.20
2023-01-08T23:55:17.752Z,3.10
2023-01-08T23:58:21.422Z,1.95
